Ingomar, Montana
Current Conditions -  °F | °C
As of 11:53 PM on Sunday 23 Nov 2014 (Local Time) from KMLS Reporting Station
Overcast Overcast  
Wind Chill: 22°   Ceiling: 8000
Heat Index: 22°   Visibility: 10mi
Dew Point: 19°   Wind: 3mph
Humidity: 89%   Direction: 60°ENE
Pressure: 29.8"   Gusts: NA
Location:  46.57°N, 107.38°W
Report Text: KMLS 240653Z AUTO 06003KT 10SM OVC080 M06/M07 A2980 RMK AO2 SLP116 T10561072 400501072
Loading
Personal Weather Stations






























Interactive Weather Map New forecast layout! Learn more

10-Day Weather Forecast

Advertisements
Track Severe Weather on mobile